createdAt,value
2022-09-03T00:01:39.189Z,3.70
2022-09-03T00:04:20.908Z,4.70
2022-09-03T00:07:03.671Z,4.10
2022-09-03T00:09:38.716Z,4.40
2022-09-03T00:12:12.656Z,4.60
2022-09-03T00:14:46.067Z,4.73
2022-09-03T00:17:18.956Z,4.87
2022-09-03T00:19:55.469Z,4.80
2022-09-03T00:22:30.916Z,4.70
2022-09-03T00:25:01.806Z,4.90
2022-09-03T00:27:34.146Z,4.60
2022-09-03T00:30:04.857Z,4.37
2022-09-03T00:32:41.517Z,5.03
2022-09-03T00:35:18.357Z,5.27
2022-09-03T00:37:49.284Z,4.40
2022-09-03T00:40:45.203Z,4.10
2022-09-03T00:43:28.809Z,5.13
2022-09-03T00:46:07.540Z,4.37
2022-09-03T00:48:50.449Z,4.67
2022-09-03T00:51:29.540Z,4.37
2022-09-03T00:54:08.112Z,4.47
2022-09-03T00:56:44.818Z,4.57
2022-09-03T00:59:25.301Z,5.17
2022-09-03T01:02:07.399Z,4.10
2022-09-03T01:04:47.975Z,4.83
2022-09-03T01:07:25.394Z,4.10
2022-09-03T01:10:10.265Z,4.57
2022-09-03T01:12:48.849Z,4.37
2022-09-03T01:15:28.648Z,4.20
2022-09-03T01:18:14.440Z,4.00
2022-09-03T01:20:57.293Z,4.33
2022-09-03T01:23:54.975Z,4.33
2022-09-03T01:26:40.553Z,4.83
2022-09-03T01:29:20.511Z,4.40
2022-09-03T01:32:01.108Z,4.60
2022-09-03T01:34:45.207Z,4.07
2022-09-03T01:37:20.880Z,4.40
2022-09-03T01:40:02.956Z,4.33
2022-09-03T01:42:46.852Z,4.37
2022-09-03T01:45:50.221Z,4.53
2022-09-03T01:48:37.845Z,4.43
2022-09-03T01:51:18.173Z,4.30
2022-09-03T01:54:21.569Z,4.87
2022-09-03T01:57:31.249Z,4.50
2022-09-03T02:00:06.077Z,4.17
2022-09-03T02:02:43.680Z,4.20
2022-09-03T02:05:15.189Z,4.67
2022-09-03T02:07:47.167Z,4.47
2022-09-03T02:10:19.415Z,4.20
2022-09-03T02:12:53.715Z,3.93
2022-09-03T02:15:26.310Z,4.13
2022-09-03T02:18:00.732Z,3.97
2022-09-03T02:20:30.819Z,3.83
2022-09-03T02:23:00.599Z,4.43
2022-09-03T02:25:34.907Z,3.93
2022-09-03T02:28:06.028Z,3.63
2022-09-03T02:30:45.216Z,4.20
2022-09-03T02:33:16.474Z,4.07
2022-09-03T02:35:45.746Z,4.30
2022-09-03T02:38:17.161Z,3.73
2022-09-03T02:40:46.334Z,4.07
2022-09-03T02:43:20.286Z,4.03
2022-09-03T02:45:58.589Z,4.00
2022-09-03T02:48:29.245Z,4.50
2022-09-03T02:50:59.067Z,4.37
2022-09-03T02:53:29.266Z,4.10
2022-09-03T02:56:01.367Z,4.00
2022-09-03T02:58:32.515Z,4.50
2022-09-03T03:01:01.795Z,3.90
2022-09-03T03:03:32.750Z,3.63
2022-09-03T03:06:04.868Z,3.47
2022-09-03T03:08:35.510Z,4.07
2022-09-03T03:11:05.364Z,3.93
2022-09-03T03:13:35.173Z,3.70
2022-09-03T03:16:08.621Z,3.80
2022-09-03T03:18:39.636Z,3.37
2022-09-03T03:21:10.756Z,3.80
2022-09-03T03:23:41.318Z,4.07
2022-09-03T03:26:12.823Z,4.13
2022-09-03T03:28:42.655Z,3.70
2022-09-03T03:31:13.442Z,3.70
2022-09-03T03:33:44.813Z,3.93
2022-09-03T03:36:16.072Z,3.80
2022-09-03T03:38:46.205Z,4.03
2022-09-03T03:41:18.619Z,3.90
2022-09-03T03:43:48.343Z,3.97
2022-09-03T03:46:18.036Z,3.80
2022-09-03T03:48:49.905Z,4.20
2022-09-03T03:51:19.885Z,4.23
2022-09-03T03:53:49.526Z,3.90
2022-09-03T03:56:19.082Z,3.83
2022-09-03T03:58:48.864Z,3.97
2022-09-03T04:01:20.034Z,3.80
2022-09-03T04:03:51.298Z,4.37
2022-09-03T04:06:22.498Z,4.23
2022-09-03T04:08:52.857Z,3.93
2022-09-03T04:11:23.817Z,4.20
2022-09-03T04:13:54.257Z,4.27
2022-09-03T04:16:25.551Z,3.83
2022-09-03T04:18:57.394Z,4.33
2022-09-03T04:21:28.711Z,4.27
2022-09-03T04:23:59.058Z,3.73
2022-09-03T04:26:31.784Z,4.13
2022-09-03T04:29:02.605Z,3.80
2022-09-03T04:31:32.322Z,4.20
2022-09-03T04:34:03.502Z,4.43
2022-09-03T04:36:33.484Z,3.97
2022-09-03T04:39:03.672Z,3.83
2022-09-03T04:41:34.039Z,3.77
2022-09-03T04:44:03.797Z,4.30
2022-09-03T04:46:34.336Z,4.10
2022-09-03T04:49:05.596Z,3.83
2022-09-03T04:51:35.228Z,3.70
2022-09-03T04:54:05.147Z,3.90
2022-09-03T04:56:36.356Z,4.00
2022-09-03T04:59:07.863Z,3.77
2022-09-03T05:01:39.774Z,3.70
2022-09-03T05:04:11.235Z,3.57
2022-09-03T05:06:40.636Z,3.47
2022-09-03T05:09:10.035Z,3.65
2022-09-03T05:11:39.436Z,3.90
2022-09-03T05:14:12.135Z,3.25
2022-09-03T05:16:42.437Z,3.70
2022-09-03T05:19:24.052Z,3.38
2022-09-03T05:21:53.380Z,3.38
2022-09-03T05:24:22.741Z,3.20
2022-09-03T05:26:52.244Z,3.78
2022-09-03T05:29:22.383Z,3.47
2022-09-03T05:31:52.064Z,3.65
2022-09-03T05:34:23.575Z,2.92
2022-09-03T05:36:53.491Z,3.10
2022-09-03T05:39:23.156Z,3.17
2022-09-03T05:41:53.742Z,3.20
2022-09-03T05:44:23.952Z,3.40
2022-09-03T05:46:53.806Z,3.10
2022-09-03T05:49:24.806Z,3.33
2022-09-03T05:51:54.407Z,3.20
2022-09-03T05:54:24.128Z,3.42
2022-09-03T05:56:54.007Z,3.42
2022-09-03T05:59:23.648Z,3.30
2022-09-03T06:01:58.030Z,3.65
2022-09-03T06:04:31.078Z,3.70
2022-09-03T06:07:03.335Z,3.20
2022-09-03T06:09:33.733Z,3.38
2022-09-03T06:12:04.676Z,3.33
2022-09-03T06:14:34.962Z,3.10
2022-09-03T06:17:04.799Z,2.95
2022-09-03T06:19:36.644Z,3.42
2022-09-03T06:22:06.432Z,3.10
2022-09-03T06:24:36.032Z,3.50
2022-09-03T06:27:05.673Z,3.20
2022-09-03T06:29:35.993Z,2.92
2022-09-03T06:32:06.451Z,3.08
2022-09-03T06:34:38.181Z,3.72
2022-09-03T06:37:08.228Z,3.30
2022-09-03T06:39:38.679Z,3.17
2022-09-03T06:42:09.750Z,3.58
2022-09-03T06:44:40.557Z,3.10
2022-09-03T06:47:10.644Z,3.35
2022-09-03T06:49:42.397Z,3.05
2022-09-03T06:52:12.397Z,3.33
2022-09-03T06:54:42.631Z,3.55
2022-09-03T06:57:12.478Z,3.03
2022-09-03T06:59:44.201Z,3.35
2022-09-03T07:02:13.927Z,3.05
2022-09-03T07:04:44.957Z,3.47
2022-09-03T07:07:17.779Z,3.38
2022-09-03T07:09:48.437Z,3.03
2022-09-03T07:12:19.584Z,3.10
2022-09-03T07:14:51.224Z,3.22
2022-09-03T07:17:20.637Z,3.20
2022-09-03T07:19:51.538Z,3.33
2022-09-03T07:22:20.878Z,2.80
2022-09-03T07:24:52.438Z,2.70
2022-09-03T07:27:21.797Z,3.15
2022-09-03T07:29:51.198Z,3.22
2022-09-03T07:32:20.606Z,2.63
2022-09-03T07:34:53.207Z,2.58
2022-09-03T07:37:22.781Z,2.75
2022-09-03T07:39:53.487Z,2.90
2022-09-03T07:42:23.369Z,2.70
2022-09-03T07:44:53.249Z,2.30
2022-09-03T09:41:29.710Z,1.98
2022-09-03T09:44:03.700Z,2.50
2022-09-03T09:46:39.612Z,2.10
2022-09-03T09:49:31.308Z,2.25
2022-09-03T09:52:06.793Z,1.90
2022-09-03T09:54:36.470Z,1.85
2022-09-03T09:57:10.100Z,2.03
2022-09-03T09:59:39.330Z,1.90
2022-09-03T10:02:22.199Z,1.77
2022-09-03T10:04:52.382Z,2.10
2022-09-03T10:07:26.707Z,1.95
2022-09-03T10:10:04.729Z,2.17
2022-09-03T10:12:42.333Z,2.03
2022-09-03T10:15:21.189Z,1.80
2022-09-03T10:17:59.308Z,2.00
2022-09-03T10:20:37.549Z,2.00
2022-09-03T10:23:18.266Z,1.52
2022-09-03T10:26:04.735Z,2.15
2022-09-03T10:28:41.574Z,1.90
2022-09-03T10:31:29.807Z,1.73
2022-09-03T10:34:04.907Z,2.30
2022-09-03T10:36:41.597Z,1.67
2022-09-03T10:39:21.118Z,2.00
2022-09-03T10:42:07.077Z,1.95
2022-09-03T10:44:58.588Z,1.75
2022-09-03T10:47:42.309Z,1.75
2022-09-03T10:50:17.747Z,1.63
2022-09-03T10:53:05.733Z,1.58
2022-09-03T10:55:46.569Z,1.73
2022-09-03T10:58:31.661Z,1.88
2022-09-03T11:01:13.171Z,1.95
2022-09-03T11:03:49.807Z,1.83
2022-09-03T11:06:25.307Z,2.50
2022-09-03T11:09:05.831Z,1.60
2022-09-03T11:11:44.263Z,1.73
2022-09-03T11:14:19.575Z,1.70
2022-09-03T11:16:56.046Z,1.70
2022-09-03T11:19:35.823Z,1.67
2022-09-03T11:22:08.309Z,1.60
2022-09-03T11:24:41.987Z,1.58
2022-09-03T11:27:23.773Z,1.80
2022-09-03T11:30:00.865Z,1.60
2022-09-03T11:32:47.238Z,1.70
2022-09-03T11:35:28.216Z,1.55
2022-09-03T11:38:04.170Z,1.60
2022-09-03T11:40:38.453Z,1.40
2022-09-03T11:43:11.840Z,1.48
2022-09-03T11:45:42.088Z,1.40
2022-09-03T11:48:36.290Z,1.52
2022-09-03T11:51:06.510Z,1.42
2022-09-03T11:53:38.021Z,1.52
2022-09-03T11:56:21.377Z,1.60
2022-09-03T11:59:02.773Z,1.50
2022-09-03T12:01:33.416Z,1.35
2022-09-03T12:04:07.987Z,1.85
2022-09-03T12:07:01.838Z,1.85
2022-09-03T12:09:56.677Z,1.48
2022-09-03T12:12:55.207Z,1.60
2022-09-03T12:15:43.401Z,1.65
2022-09-03T12:18:23.159Z,1.50
2022-09-03T12:21:05.764Z,1.77
2022-09-03T12:23:36.936Z,1.73
2022-09-03T12:26:09.657Z,1.67
2022-09-03T12:28:44.812Z,1.75
2022-09-03T12:31:25.832Z,1.85
2022-09-03T12:33:59.721Z,1.50
2022-09-03T12:36:39.533Z,1.80
2022-09-03T12:39:13.151Z,1.70
2022-09-03T12:42:01.721Z,1.50
2022-09-03T12:44:33.716Z,1.83
2022-09-03T12:49:59.427Z,1.63
2022-09-03T12:52:35.043Z,1.45
2022-09-03T12:55:10.253Z,2.00
2022-09-03T12:57:45.801Z,1.65
2022-09-03T13:00:18.596Z,1.63
2022-09-03T13:02:53.622Z,1.60
2022-09-03T13:05:27.442Z,1.50
2022-09-03T13:08:00.825Z,1.60
2022-09-03T13:10:31.901Z,1.88
2022-09-03T13:13:03.351Z,2.00
2022-09-03T13:15:33.155Z,1.65
2022-09-03T13:18:22.044Z,1.65
2022-09-03T13:21:05.060Z,2.03
2022-09-03T13:23:56.846Z,1.73
2022-09-03T13:26:37.294Z,1.70
2022-09-03T13:29:30.315Z,1.67
2022-09-03T13:32:06.376Z,1.70
2022-09-03T13:34:39.524Z,1.70
2022-09-03T13:37:27.972Z,1.90
2022-09-03T13:40:01.555Z,1.60
2022-09-03T13:42:38.210Z,1.52
2022-09-03T13:45:22.894Z,1.65
2022-09-03T13:48:17.381Z,1.50
2022-09-03T13:50:59.093Z,1.60
2022-09-03T13:53:41.529Z,1.90
2022-09-03T13:56:25.912Z,1.75
2022-09-03T13:59:03.539Z,1.70
2022-09-03T14:01:47.374Z,1.50
2022-09-03T14:04:24.449Z,1.77
2022-09-03T14:07:03.262Z,1.60
2022-09-03T14:09:42.081Z,1.60
2022-09-03T14:12:19.866Z,1.65
2022-09-03T14:14:56.709Z,1.52
2022-09-03T14:17:37.763Z,1.70
2022-09-03T14:20:13.891Z,1.55
2022-09-03T14:22:51.300Z,1.70
2022-09-03T14:25:22.331Z,1.75
2022-09-03T14:27:53.595Z,1.83
2022-09-03T14:30:34.844Z,1.60
2022-09-03T14:33:14.020Z,1.63
2022-09-03T14:35:55.583Z,1.92
2022-09-03T14:38:57.160Z,1.80
2022-09-03T14:41:46.004Z,1.90
2022-09-03T14:44:33.719Z,1.58
2022-09-03T14:47:19.975Z,1.55
2022-09-03T14:50:13.631Z,1.50
2022-09-03T14:53:11.795Z,1.63
2022-09-03T14:56:14.637Z,1.63
2022-09-03T14:59:26.347Z,1.67
2022-09-03T15:02:13.457Z,1.80
2022-09-03T15:04:57.831Z,1.60
2022-09-03T15:07:34.365Z,1.40
2022-09-03T15:10:13.958Z,1.50
2022-09-03T15:12:48.137Z,1.45
2022-09-03T15:15:23.277Z,1.55
2022-09-03T15:18:12.005Z,1.70
2022-09-03T15:20:51.129Z,1.67
2022-09-03T15:23:40.050Z,1.67
2022-09-03T15:26:41.243Z,1.77
2022-09-03T15:29:27.510Z,2.35
2022-09-03T15:32:08.342Z,2.08
2022-09-03T15:34:58.562Z,3.00
2022-09-03T15:37:34.014Z,1.63
2022-09-03T15:40:08.702Z,1.90
2022-09-03T15:42:38.833Z,1.92
2022-09-03T15:45:17.805Z,2.08
2022-09-03T15:47:56.592Z,2.35
2022-09-03T15:50:36.794Z,1.95
2022-09-03T15:53:16.995Z,1.67
2022-09-03T15:55:48.342Z,1.77
2022-09-03T15:58:28.191Z,1.58
2022-09-03T16:01:03.445Z,1.85
2022-09-03T16:03:46.643Z,2.33
2022-09-03T16:06:38.711Z,2.38
2022-09-03T16:09:19.506Z,2.10
2022-09-03T16:11:57.976Z,1.90
2022-09-03T16:14:34.603Z,1.70
2022-09-03T16:17:10.649Z,1.92
2022-09-03T16:19:48.312Z,2.20
2022-09-03T16:22:27.748Z,1.98
2022-09-03T16:25:02.836Z,1.75
2022-09-03T16:27:36.829Z,2.13
2022-09-03T16:30:13.188Z,2.42
2022-09-03T16:32:59.348Z,2.90
2022-09-03T16:35:43.336Z,2.58
2022-09-03T16:38:31.546Z,2.20
2022-09-03T16:41:10.698Z,3.00
2022-09-03T16:43:46.461Z,2.55
2022-09-03T16:46:26.562Z,2.90
2022-09-03T16:49:12.049Z,2.75
2022-09-03T16:51:49.408Z,2.92
2022-09-03T16:54:38.589Z,2.95
2022-09-03T16:57:19.989Z,3.45
2022-09-03T17:00:05.331Z,3.30
2022-09-03T17:03:26.137Z,3.22
2022-09-03T17:06:29.305Z,3.38
2022-09-03T17:09:06.811Z,3.47
2022-09-03T17:11:46.100Z,3.75
2022-09-03T17:14:45.642Z,3.33
2022-09-03T17:17:26.537Z,3.67
2022-09-03T17:20:01.426Z,3.35
2022-09-03T17:22:44.467Z,3.30
2022-09-03T17:25:26.015Z,2.75
2022-09-03T17:28:09.596Z,3.13
2022-09-03T17:30:45.387Z,3.63
2022-09-03T17:33:44.955Z,4.35
2022-09-03T17:36:18.414Z,3.70
2022-09-03T17:39:17.058Z,4.22
2022-09-03T17:41:54.775Z,3.67
2022-09-03T17:44:45.354Z,4.00
2022-09-03T17:47:50.442Z,3.97
2022-09-03T17:50:25.190Z,3.38
2022-09-03T17:52:58.542Z,4.25
2022-09-03T17:55:37.242Z,3.08
2022-09-03T17:58:18.517Z,3.80
2022-09-03T18:00:56.592Z,4.00
2022-09-03T18:03:30.419Z,4.10
2022-09-03T18:06:04.846Z,3.85
2022-09-03T18:08:44.413Z,3.78
2022-09-03T18:11:20.179Z,3.97
2022-09-03T18:14:02.568Z,3.85
2022-09-03T18:16:35.823Z,4.57
2022-09-03T18:19:18.568Z,4.43
2022-09-03T18:22:08.497Z,4.15
2022-09-03T18:25:03.929Z,4.35
2022-09-03T18:27:57.995Z,4.53
2022-09-03T18:30:46.969Z,4.03
2022-09-03T18:33:36.860Z,4.22
2022-09-03T18:36:24.656Z,4.60
2022-09-03T18:39:11.752Z,4.35
2022-09-03T18:42:15.269Z,4.40
2022-09-03T18:45:22.171Z,4.15
2022-09-03T18:48:26.705Z,4.10
2022-09-03T18:51:22.671Z,4.10
2022-09-03T18:54:20.215Z,4.32
2022-09-03T18:57:08.724Z,4.50
2022-09-03T19:00:16.701Z,4.45
2022-09-03T19:03:25.132Z,4.40
2022-09-03T19:06:24.701Z,4.30
2022-09-03T19:09:20.671Z,4.20
2022-09-03T19:12:21.215Z,4.47
2022-09-03T19:15:15.412Z,4.60
2022-09-03T19:18:24.796Z,4.57
2022-09-03T19:21:21.825Z,4.25
2022-09-03T19:24:09.286Z,3.88
2022-09-03T19:27:18.081Z,3.88
2022-09-03T19:30:23.476Z,4.18
2022-09-03T19:33:22.200Z,4.47
2022-09-03T19:36:16.602Z,4.15
2022-09-03T19:39:21.880Z,4.75
2022-09-03T19:42:15.683Z,4.93
2022-09-03T19:45:17.082Z,4.40
2022-09-03T19:48:13.069Z,4.43
2022-09-03T19:51:04.432Z,4.60
2022-09-03T19:53:53.433Z,4.90
2022-09-03T19:56:46.566Z,4.83
2022-09-03T19:59:39.200Z,5.23
2022-09-03T20:02:25.825Z,5.50
2022-09-03T20:05:17.942Z,5.80
2022-09-03T20:08:06.364Z,5.93
2022-09-03T20:10:37.371Z,5.97
2022-09-03T20:13:13.730Z,5.47
2022-09-03T20:15:58.042Z,5.75
2022-09-03T20:18:38.952Z,7.07
2022-09-03T20:21:18.059Z,5.80
2022-09-03T20:23:56.293Z,5.93
2022-09-03T20:26:42.876Z,6.00
2022-09-03T20:29:42.440Z,6.33
2022-09-03T20:32:18.326Z,6.77
2022-09-03T20:34:59.171Z,6.73
2022-09-03T20:37:38.969Z,6.10
2022-09-03T20:40:28.638Z,6.83
2022-09-03T20:43:20.924Z,6.60
2022-09-03T20:46:09.396Z,6.90
2022-09-03T20:48:47.329Z,6.60
2022-09-03T20:51:22.932Z,6.67
2022-09-03T20:54:15.367Z,6.77
2022-09-03T20:57:02.910Z,7.23
2022-09-03T20:59:44.967Z,7.20
2022-09-03T21:02:26.255Z,7.23
2022-09-03T21:05:06.719Z,6.70
2022-09-03T21:07:49.724Z,6.50
2022-09-03T21:10:26.385Z,7.13
2022-09-03T21:13:03.713Z,7.03
2022-09-03T21:15:45.824Z,6.40
2022-09-03T21:18:25.649Z,6.67
2022-09-03T21:21:09.938Z,6.90
2022-09-03T21:23:43.686Z,6.83
2022-09-03T21:26:17.535Z,6.80
2022-09-03T21:29:00.656Z,6.53
2022-09-03T21:31:38.705Z,7.43
2022-09-03T21:34:18.628Z,7.30
2022-09-03T21:36:50.588Z,7.00
2022-09-03T21:39:25.957Z,7.33
2022-09-03T21:41:59.458Z,7.10
2022-09-03T21:44:48.742Z,7.37
2022-09-03T21:47:21.613Z,7.13
2022-09-03T21:50:02.479Z,7.33
2022-09-03T21:52:41.207Z,6.70
2022-09-03T21:55:22.032Z,7.23
2022-09-03T21:58:03.177Z,7.03
2022-09-03T22:00:33.326Z,6.20
2022-09-03T22:03:03.567Z,6.80
2022-09-03T22:05:44.467Z,7.43
2022-09-03T22:08:22.553Z,7.93
2022-09-03T22:11:04.890Z,7.70
2022-09-03T22:13:43.486Z,7.13
2022-09-03T22:16:23.643Z,7.67
2022-09-03T22:18:53.411Z,7.53
2022-09-03T22:21:33.689Z,7.73
2022-09-03T22:24:19.452Z,8.10
2022-09-03T22:26:56.171Z,7.03
2022-09-03T22:29:37.318Z,6.43
2022-09-03T22:32:18.311Z,7.43
2022-09-03T22:35:14.287Z,7.23
2022-09-03T22:37:55.897Z,7.70
2022-09-03T22:40:30.226Z,7.23
2022-09-03T22:43:20.787Z,6.80
2022-09-03T22:46:08.016Z,7.57
2022-09-03T22:48:59.453Z,7.50
2022-09-03T22:51:32.134Z,6.93
2022-09-03T22:54:17.906Z,6.73
2022-09-03T22:56:47.832Z,7.47
2022-09-03T22:59:25.395Z,6.80
2022-09-03T23:02:04.595Z,6.90
2022-09-03T23:04:46.676Z,6.73
2022-09-03T23:07:24.241Z,6.77
2022-09-03T23:09:59.313Z,6.80
2022-09-03T23:12:36.821Z,6.43
2022-09-03T23:15:09.385Z,6.10
2022-09-03T23:17:44.094Z,6.20
2022-09-03T23:20:18.129Z,7.00
2022-09-03T23:22:54.738Z,6.57
2022-09-03T23:25:31.511Z,6.77
2022-09-03T23:28:04.390Z,7.20
2022-09-03T23:30:33.710Z,7.17
2022-09-03T23:33:03.117Z,6.63
2022-09-03T23:35:37.306Z,7.10
2022-09-03T23:38:16.898Z,8.00
2022-09-03T23:40:51.704Z,7.73
2022-09-03T23:43:48.737Z,7.50
2022-09-03T23:46:22.305Z,8.03
2022-09-03T23:49:33.759Z,8.43
2022-09-03T23:52:22.214Z,7.63
2022-09-03T23:55:05.496Z,8.07
2022-09-03T23:57:40.143Z,7.93
